TAM3056 SBSP-SBCT
Flight info
| Callsign | TAM3056 |
|---|---|
| Flight time | 0h 35m |
| Altitude | 30000 |
| Route | SOVSI UZ85 RAXIT |
| Aircraft | A320/M-SDE3FGHIRWY/LB1 |
Departure
| Time | 2026-04-30 05:32 |
|---|---|
| Airport | Congonhas–Deputado Freitas Nobre Airport (SBSP) |
Arrival
| Time | 2026-04-30 06:07 |
|---|---|
| Airport | Curitiba-Afonso Pena International Airport (SBCT) |
| Time | Latitude | Longitude | Altitude | Speed | Heading |
|---|---|---|---|---|---|
| 2026-04-30 05:20 | -23.62481 | -46.65987 | 2601 ft | 0 kts | 237° |
| 2026-04-30 05:26 | -23.62475 | -46.65977 | 2600 ft | 4 kts | 238° |
| 2026-04-30 05:26 | -23.62463 | -46.65953 | 2600 ft | 4 kts | 272° |
| 2026-04-30 05:26 | -23.62472 | -46.65937 | 2601 ft | 4 kts | 327° |
| 2026-04-30 05:26 | -23.62481 | -46.65931 | 2601 ft | 0 kts | 327° |
| 2026-04-30 05:29 | -23.62477 | -46.65934 | 2601 ft | 2 kts | 327° |
| 2026-04-30 05:29 | -23.62456 | -46.65941 | 2601 ft | 5 kts | 349° |
| 2026-04-30 05:29 | -23.62411 | -46.65948 | 2601 ft | 7 kts | 352° |
| 2026-04-30 05:29 | -23.62358 | -46.65968 | 2600 ft | 9 kts | 330° |
| 2026-04-30 05:30 | -23.62298 | -46.66007 | 2600 ft | 10 kts | 328° |
| 2026-04-30 05:30 | -23.62250 | -46.66039 | 2600 ft | 9 kts | 329° |
| 2026-04-30 05:30 | -23.62191 | -46.66075 | 2599 ft | 10 kts | 330° |
| 2026-04-30 05:30 | -23.62126 | -46.66119 | 2592 ft | 12 kts | 328° |
| 2026-04-30 05:31 | -23.62042 | -46.66119 | 2591 ft | 16 kts | 43° |
| 2026-04-30 05:31 | -23.62049 | -46.66075 | 2590 ft | 0 kts | 148° |
| 2026-04-30 05:31 | -23.62158 | -46.66000 | 2598 ft | 52 kts | 147° |
| 2026-04-30 05:32 | -23.62676 | -46.65640 | 2606 ft | 120 kts | 147° |
| 2026-04-30 05:32 | -23.63510 | -46.65074 | 2858 ft | 147 kts | 150° |
| 2026-04-30 05:32 | -23.64379 | -46.64480 | 3437 ft | 153 kts | 148° |
| 2026-04-30 05:32 | -23.65324 | -46.63799 | 3708 ft | 170 kts | 144° |
| 2026-04-30 05:33 | -23.66447 | -46.63242 | 3927 ft | 190 kts | 179° |
| 2026-04-30 05:33 | -23.67735 | -46.63667 | 4153 ft | 207 kts | 221° |
| 2026-04-30 05:33 | -23.68599 | -46.64969 | 4391 ft | 226 kts | 243° |
| 2026-04-30 05:33 | -23.69375 | -46.66551 | 4740 ft | 247 kts | 245° |
| 2026-04-30 05:34 | -23.70248 | -46.68256 | 5258 ft | 264 kts | 240° |
| 2026-04-30 05:34 | -23.71270 | -46.69937 | 6065 ft | 268 kts | 238° |
| 2026-04-30 05:34 | -23.72351 | -46.71613 | 6905 ft | 272 kts | 237° |
| 2026-04-30 05:34 | -23.73459 | -46.73293 | 7689 ft | 274 kts | 237° |
| 2026-04-30 05:35 | -23.74585 | -46.74989 | 8485 ft | 277 kts | 237° |
| 2026-04-30 05:35 | -23.75716 | -46.76697 | 9294 ft | 280 kts | 236° |
| 2026-04-30 05:35 | -23.76861 | -46.78432 | 10096 ft | 283 kts | 236° |
| 2026-04-30 05:35 | -23.78029 | -46.80215 | 10537 ft | 299 kts | 237° |
| 2026-04-30 05:36 | -23.79270 | -46.82121 | 10852 ft | 316 kts | 237° |
| 2026-04-30 05:36 | -23.80555 | -46.84097 | 11457 ft | 321 kts | 237° |
| 2026-04-30 05:36 | -23.81855 | -46.86090 | 12144 ft | 324 kts | 236° |
| 2026-04-30 05:36 | -23.83170 | -46.88100 | 12811 ft | 326 kts | 236° |
| 2026-04-30 05:37 | -23.84489 | -46.90114 | 13529 ft | 328 kts | 236° |
| 2026-04-30 05:37 | -23.85822 | -46.92150 | 14180 ft | 330 kts | 236° |
| 2026-04-30 05:37 | -23.87157 | -46.94198 | 14775 ft | 333 kts | 237° |
| 2026-04-30 05:37 | -23.88504 | -46.96263 | 15365 ft | 336 kts | 237° |
| 2026-04-30 05:38 | -23.89863 | -46.98352 | 15959 ft | 338 kts | 237° |
| 2026-04-30 05:38 | -23.91233 | -47.00461 | 16548 ft | 341 kts | 237° |
| 2026-04-30 05:38 | -23.92611 | -47.02584 | 17116 ft | 344 kts | 238° |
| 2026-04-30 05:38 | -23.94003 | -47.04729 | 17690 ft | 347 kts | 237° |
| 2026-04-30 05:39 | -23.95408 | -47.06890 | 18262 ft | 350 kts | 238° |
| 2026-04-30 05:39 | -23.96825 | -47.09069 | 18772 ft | 353 kts | 238° |
| 2026-04-30 05:39 | -23.98251 | -47.11262 | 19274 ft | 356 kts | 238° |
| 2026-04-30 05:39 | -23.99668 | -47.13446 | 19779 ft | 358 kts | 238° |
| 2026-04-30 05:40 | -24.01129 | -47.15705 | 20306 ft | 361 kts | 239° |
| 2026-04-30 05:40 | -24.02565 | -47.17923 | 20821 ft | 363 kts | 239° |
| 2026-04-30 05:40 | -24.04028 | -47.20182 | 21386 ft | 365 kts | 238° |
| 2026-04-30 05:40 | -24.05500 | -47.22453 | 21900 ft | 367 kts | 239° |
| 2026-04-30 05:41 | -24.06981 | -47.24734 | 22360 ft | 370 kts | 239° |
| 2026-04-30 05:41 | -24.08479 | -47.27041 | 22860 ft | 373 kts | 239° |
| 2026-04-30 05:41 | -24.09985 | -47.29369 | 23366 ft | 376 kts | 239° |
| 2026-04-30 05:41 | -24.11498 | -47.31712 | 23810 ft | 378 kts | 239° |
| 2026-04-30 05:42 | -24.13021 | -47.34068 | 24235 ft | 381 kts | 239° |
| 2026-04-30 05:42 | -24.14555 | -47.36440 | 24666 ft | 383 kts | 239° |
| 2026-04-30 05:42 | -24.16098 | -47.38828 | 25052 ft | 386 kts | 238° |
| 2026-04-30 05:42 | -24.17653 | -47.41236 | 25455 ft | 388 kts | 239° |
| 2026-04-30 05:43 | -24.19215 | -47.43658 | 25866 ft | 390 kts | 239° |
| 2026-04-30 05:43 | -24.20786 | -47.46095 | 26269 ft | 393 kts | 239° |
| 2026-04-30 05:43 | -24.22364 | -47.48543 | 26657 ft | 395 kts | 239° |
| 2026-04-30 05:43 | -24.23952 | -47.51008 | 27046 ft | 397 kts | 239° |
| 2026-04-30 05:44 | -24.25550 | -47.53489 | 27335 ft | 401 kts | 239° |
| 2026-04-30 05:44 | -24.27167 | -47.55997 | 27674 ft | 404 kts | 239° |
| 2026-04-30 05:44 | -24.28788 | -47.58516 | 27960 ft | 406 kts | 239° |
| 2026-04-30 05:44 | -24.30414 | -47.61048 | 28040 ft | 405 kts | 239° |
| 2026-04-30 05:45 | -24.33656 | -47.66096 | 28040 ft | 404 kts | 239° |
| 2026-04-30 05:45 | -24.36891 | -47.71140 | 28042 ft | 404 kts | 239° |
| 2026-04-30 05:46 | -24.40132 | -47.76178 | 28040 ft | 404 kts | 239° |
| 2026-04-30 05:46 | -24.43355 | -47.81225 | 28046 ft | 404 kts | 239° |
| 2026-04-30 05:47 | -24.46584 | -47.86275 | 28056 ft | 404 kts | 239° |
| 2026-04-30 05:47 | -24.49816 | -47.91324 | 28057 ft | 404 kts | 239° |
| 2026-04-30 05:48 | -24.53046 | -47.96375 | 28051 ft | 404 kts | 239° |
| 2026-04-30 05:48 | -24.56241 | -48.01390 | 28055 ft | 404 kts | 239° |
| 2026-04-30 05:49 | -24.59462 | -48.06445 | 28045 ft | 404 kts | 239° |
| 2026-04-30 05:49 | -24.62689 | -48.11507 | 28040 ft | 404 kts | 239° |
| 2026-04-30 05:50 | -24.65918 | -48.16582 | 28040 ft | 405 kts | 239° |
| 2026-04-30 05:50 | -24.69136 | -48.21657 | 28040 ft | 405 kts | 240° |
| 2026-04-30 05:51 | -24.72354 | -48.26744 | 28054 ft | 406 kts | 239° |
| 2026-04-30 05:51 | -24.75580 | -48.31829 | 27898 ft | 407 kts | 239° |
| 2026-04-30 05:52 | -24.77193 | -48.34371 | 27371 ft | 403 kts | 239° |
| 2026-04-30 05:52 | -24.78796 | -48.36900 | 26560 ft | 406 kts | 239° |
| 2026-04-30 05:52 | -24.80424 | -48.39469 | 25532 ft | 409 kts | 238° |
| 2026-04-30 05:52 | -24.82038 | -48.42013 | 24624 ft | 404 kts | 238° |
| 2026-04-30 05:53 | -24.83634 | -48.44537 | 24117 ft | 400 kts | 237° |
| 2026-04-30 05:53 | -24.85212 | -48.47037 | 23651 ft | 395 kts | 237° |
| 2026-04-30 05:53 | -24.86775 | -48.49516 | 23140 ft | 391 kts | 237° |
| 2026-04-30 05:53 | -24.88316 | -48.51951 | 22707 ft | 385 kts | 237° |
| 2026-04-30 05:54 | -24.89839 | -48.54357 | 22249 ft | 382 kts | 237° |
| 2026-04-30 05:54 | -24.91346 | -48.56743 | 21803 ft | 378 kts | 237° |
| 2026-04-30 05:54 | -24.92845 | -48.59124 | 21217 ft | 379 kts | 237° |
| 2026-04-30 05:54 | -24.94342 | -48.61502 | 20746 ft | 376 kts | 237° |
| 2026-04-30 05:55 | -24.95827 | -48.63863 | 20286 ft | 374 kts | 237° |
| 2026-04-30 05:55 | -24.97303 | -48.66209 | 19803 ft | 371 kts | 237° |
| 2026-04-30 05:55 | -24.98767 | -48.68539 | 19323 ft | 368 kts | 237° |
| 2026-04-30 05:55 | -25.00220 | -48.70849 | 18831 ft | 366 kts | 237° |
| 2026-04-30 05:56 | -25.01668 | -48.73152 | 18339 ft | 364 kts | 237° |
| 2026-04-30 05:56 | -25.03109 | -48.75447 | 17793 ft | 362 kts | 237° |
| 2026-04-30 05:56 | -25.04534 | -48.77716 | 17305 ft | 358 kts | 237° |
| 2026-04-30 05:56 | -25.05937 | -48.79952 | 16822 ft | 353 kts | 237° |
| 2026-04-30 05:57 | -25.07325 | -48.82166 | 16335 ft | 349 kts | 237° |
| 2026-04-30 05:57 | -25.08697 | -48.84353 | 15859 ft | 345 kts | 237° |
| 2026-04-30 05:57 | -25.10059 | -48.86519 | 15384 ft | 342 kts | 238° |
| 2026-04-30 05:57 | -25.11404 | -48.88667 | 14907 ft | 338 kts | 238° |
| 2026-04-30 05:58 | -25.12736 | -48.90793 | 14439 ft | 335 kts | 238° |
| 2026-04-30 05:58 | -25.14056 | -48.92900 | 13978 ft | 332 kts | 238° |
| 2026-04-30 05:58 | -25.15366 | -48.94991 | 13472 ft | 329 kts | 238° |
| 2026-04-30 05:58 | -25.16664 | -48.97064 | 13005 ft | 327 kts | 238° |
| 2026-04-30 05:59 | -25.17946 | -48.99115 | 12552 ft | 324 kts | 238° |
| 2026-04-30 05:59 | -25.19219 | -49.01154 | 12094 ft | 321 kts | 238° |
| 2026-04-30 05:59 | -25.20467 | -49.03149 | 11645 ft | 319 kts | 238° |
| 2026-04-30 05:59 | -25.21723 | -49.05159 | 11198 ft | 317 kts | 238° |
| 2026-04-30 06:00 | -25.22986 | -49.07183 | 10749 ft | 315 kts | 238° |
| 2026-04-30 06:00 | -25.24206 | -49.09144 | 10374 ft | 312 kts | 238° |
| 2026-04-30 06:00 | -25.25412 | -49.11077 | 10254 ft | 300 kts | 238° |
| 2026-04-30 06:00 | -25.26572 | -49.12935 | 10136 ft | 289 kts | 238° |
| 2026-04-30 06:01 | -25.27694 | -49.14732 | 9978 ft | 280 kts | 239° |
| 2026-04-30 06:01 | -25.28782 | -49.16477 | 9828 ft | 271 kts | 239° |
| 2026-04-30 06:01 | -25.29848 | -49.18194 | 9447 ft | 271 kts | 239° |
| 2026-04-30 06:01 | -25.30914 | -49.19912 | 9066 ft | 271 kts | 238° |
| 2026-04-30 06:02 | -25.31973 | -49.21615 | 8697 ft | 264 kts | 239° |
| 2026-04-30 06:02 | -25.32996 | -49.23258 | 8342 ft | 254 kts | 237° |
| 2026-04-30 06:02 | -25.34174 | -49.24679 | 7989 ft | 248 kts | 227° |
| 2026-04-30 06:02 | -25.35396 | -49.25984 | 7642 ft | 240 kts | 227° |
| 2026-04-30 06:03 | -25.36582 | -49.27247 | 7307 ft | 233 kts | 227° |
| 2026-04-30 06:03 | -25.37734 | -49.28471 | 6977 ft | 226 kts | 227° |
| 2026-04-30 06:03 | -25.38835 | -49.29651 | 6608 ft | 215 kts | 228° |
| 2026-04-30 06:03 | -25.40048 | -49.30523 | 6248 ft | 207 kts | 195° |
| 2026-04-30 06:04 | -25.41435 | -49.30299 | 5865 ft | 204 kts | 149° |
| 2026-04-30 06:04 | -25.42431 | -49.29229 | 5622 ft | 198 kts | 135° |
| 2026-04-30 06:04 | -25.43394 | -49.28142 | 5374 ft | 197 kts | 137° |
| 2026-04-30 06:05 | -25.45302 | -49.26016 | 4877 ft | 193 kts | 137° |
| 2026-04-30 06:05 | -25.46243 | -49.24965 | 4624 ft | 190 kts | 137° |
| 2026-04-30 06:05 | -25.47158 | -49.23942 | 4377 ft | 181 kts | 137° |
| 2026-04-30 06:05 | -25.47992 | -49.23008 | 4203 ft | 163 kts | 137° |
| 2026-04-30 06:06 | -25.48771 | -49.22139 | 3999 ft | 157 kts | 137° |
| 2026-04-30 06:06 | -25.49531 | -49.21289 | 3792 ft | 154 kts | 136° |
| 2026-04-30 06:06 | -25.50276 | -49.20455 | 3579 ft | 152 kts | 136° |
| 2026-04-30 06:06 | -25.51016 | -49.19630 | 3373 ft | 151 kts | 137° |
| 2026-04-30 06:07 | -25.51752 | -49.18804 | 3157 ft | 149 kts | 135° |
| 2026-04-30 06:07 | -25.52479 | -49.17989 | 2999 ft | 144 kts | 136° |
| 2026-04-30 06:07 | -25.53069 | -49.17330 | 2993 ft | 84 kts | 135° |
| 2026-04-30 06:07 | -25.53325 | -49.17044 | 2991 ft | 42 kts | 135° |
| 2026-04-30 06:08 | -25.53516 | -49.16830 | 2990 ft | 24 kts | 134° |
| 2026-04-30 06:08 | -25.53601 | -49.16771 | 2991 ft | 8 kts | 201° |
| 2026-04-30 06:08 | -25.53614 | -49.16834 | 2990 ft | 10 kts | 272° |
| 2026-04-30 06:08 | -25.53612 | -49.16905 | 2990 ft | 9 kts | 271° |
| 2026-04-30 06:09 | -25.53615 | -49.16974 | 2990 ft | 8 kts | 251° |
| 2026-04-30 06:09 | -25.53640 | -49.17027 | 2990 ft | 7 kts | 272° |
| 2026-04-30 06:09 | -25.53613 | -49.17066 | 2991 ft | 4 kts | 311° |
| 2026-04-30 06:09 | -25.53619 | -49.17075 | 2991 ft | 1 kts | 218° |
| 2026-04-30 06:10 | -25.53630 | -49.17082 | 2993 ft | 1 kts | 211° |
| 2026-04-30 06:10 | -25.53645 | -49.17092 | 2993 ft | 6 kts | 213° |
| 2026-04-30 06:10 | -25.53667 | -49.17107 | 2993 ft | 3 kts | 211° |
| 2026-04-30 06:10 | -25.53670 | -49.17110 | 2993 ft | 0 kts | 211° |